Flying Cat 5 — SY5393 — position and weather

sailwx.info

Track history (hours):
 
Tides and Currents Weather Stations Pressure Air Temp Water Temp Dewpoint Dewpoint Depression Visibility Wind Speed Wind Dir Waves Ship Positions

Flying Cat 5

Last reported at 2018-May-24 09:01 UTC. Time now 2018-Jun-24 09:19 UTC.
Position N 37°42' E 023°41'.
Warning: this ship's position is 31 days out of date.

Length 40 m.

Type: Ship. MMSI: 237836900.

Date/timePositionNaut miles runAvg speedWind from/ knotsBaromVisibWave heightAir tempDewpointWater temp
2018-May-24 09:01N 37°42' E 023°41'1020.4
2018-May-24 08:31N 37°52' E 023°37'5 9.5
2018-May-24 08:00N 37°57' E 023°38'0 0.0
2018-May-24 07:30N 37°57' E 023°38'0 0.0
2018-May-24 07:00N 37°57' E 023°38'0 0.0
2018-May-24 06:30N 37°57' E 023°38'0 0.0
2018-May-24 06:00N 37°57' E 023°38'0 0.0
2018-May-24 05:30N 37°57' E 023°38'0 0.0
2018-May-24 05:00N 37°57' E 023°38'0 0.0
2018-May-24 04:27N 37°57' E 023°38'0 0.0
2018-May-23 18:52N 37°57' E 023°38'0 0.0
2018-May-23 18:30N 37°57' E 023°38'0 0.0
2018-May-23 18:00N 37°57' E 023°38'0 0.0
2018-May-23 17:30N 37°57' E 023°38'0 0.0
2018-May-23 17:00N 37°57' E 023°38'0 0.0
2018-May-23 16:30N 37°57' E 023°38'0 0.0
2018-May-23 16:00N 37°57' E 023°38'0 0.0
2018-May-23 15:30N 37°57' E 023°38'0 0.0
2018-May-23 15:00N 37°57' E 023°38'2 4.6
2018-May-23 14:30N 37°55' E 023°36'714.4
2018-May-23 14:00N 37°49' E 023°31'5 9.1
2018-May-23 13:30N 37°52' E 023°36'510.1
2018-May-23 13:00N 37°49' E 023°30'918.3
2018-May-23 12:30N 37°56' E 023°38'1 1.4
2018-May-23 12:00N 37°57' E 023°38'0 0.0
2018-May-23 11:30N 37°57' E 023°38'0 0.0
2018-May-23 11:00N 37°57' E 023°38'0 0.0
2018-May-23 10:30N 37°57' E 023°38'0 0.0
2018-May-23 09:57N 37°57' E 023°38'0 0.0
2018-May-23 09:30N 37°57' E 023°38'0 0.0
2018-May-23 09:00N 37°57' E 023°38'0 0.0
2018-May-23 08:30N 37°57' E 023°38'0 0.0
2018-May-23 08:00N 37°57' E 023°38'0 0.0
2018-May-23 07:30N 37°57' E 023°38'0 0.0
2018-May-23 06:49N 37°57' E 023°38'0 0.0
2018-May-23 06:22N 37°57' E 023°38'0 0.0
2018-May-23 05:55N 37°57' E 023°38'0 0.0
2018-May-23 05:27N 37°57' E 023°38'0 0.0
2018-May-23 04:58N 37°57' E 023°38'0 0.0
2018-May-23 04:30N 37°57' E 023°38'0 0.0
2018-May-22 21:28N 37°57' E 023°38'0 0.0
2018-May-22 20:58N 37°57' E 023°38'0 0.0
2018-May-22 20:27N 37°57' E 023°38'0 0.0
2018-May-22 19:59N 37°57' E 023°38'0 0.0
2018-May-22 19:29N 37°57' E 023°38'0 0.0
2018-May-22 18:57N 37°57' E 023°38'0 0.0
2018-May-22 18:30N 37°57' E 023°38'3 1.9
2018-May-22 17:10N 37°55' E 023°36'1 9.3
2018-May-22 17:00N 37°56' E 023°37'1 2.1
2018-May-22 16:27N 37°57' E 023°38'0 0.0
2018-May-22 16:00N 37°57' E 023°38'0 0.0
2018-May-22 15:30N 37°57' E 023°38'0 0.0
2018-May-22 15:00N 37°57' E 023°38'0 0.0
2018-May-22 14:30N 37°57' E 023°38'0 0.0
2018-May-22 14:00N 37°57' E 023°38'0 0.0
2018-May-22 13:30N 37°57' E 023°38'0 0.0
2018-May-22 13:00N 37°57' E 023°38'0 0.0
2018-May-22 12:30N 37°57' E 023°38'0 0.0
2018-May-22 12:00N 37°57' E 023°38'0 0.0
2018-May-22 11:30N 37°57' E 023°38'0 0.0
2018-May-22 10:54N 37°57' E 023°38'0 0.0
2018-May-22 10:30N 37°57' E 023°38'0 0.0
2018-May-22 10:00N 37°57' E 023°38'0 0.0
2018-May-22 09:30N 37°57' E 023°38'0 0.0
2018-May-22 09:00N 37°57' E 023°38'0 0.0
2018-May-22 08:30N 37°57' E 023°38'0 0.0
2018-May-22 08:00N 37°57' E 023°38'0 0.0
2018-May-22 07:30N 37°57' E 023°38'0 0.0
2018-May-22 07:00N 37°57' E 023°38'0 0.0
2018-May-22 06:27N 37°57' E 023°38'0 0.0
2018-May-22 06:00N 37°57' E 023°38'0 0.0
2018-May-22 05:30N 37°57' E 023°38'0 0.0
2018-May-22 05:00N 37°57' E 023°38'0 0.0
2018-May-21 19:30N 37°57' E 023°38'0 0.0
2018-May-21 18:57N 37°57' E 023°38'0 0.0
2018-May-21 18:28N 37°57' E 023°38'0 0.2
2018-May-21 18:00N 37°57' E 023°38'3 5.9
2018-May-21 17:30N 37°57' E 023°35'1 2.2
2018-May-21 16:58N 37°57' E 023°33'0 0.0
2018-May-21 13:59N 37°57' E 023°33'0 0.0
2018-May-21 13:29N 37°57' E 023°33'0 0.0
2018-May-21 12:59N 37°57' E 023°33'0 0.0
2018-May-21 12:29N 37°57' E 023°33'0 0.0
2018-May-21 11:59N 37°57' E 023°33'0 0.0
2018-May-21 11:23N 37°57' E 023°33'0 0.0
2018-May-21 10:59N 37°57' E 023°33'0 0.0
2018-May-21 10:29N 37°57' E 023°33'0 0.0
2018-May-21 09:59N 37°57' E 023°33'0 0.0
2018-May-21 09:26N 37°57' E 023°33'0 0.0
2018-May-21 08:56N 37°57' E 023°33'0 0.0
2018-May-21 08:29N 37°57' E 023°33'0 0.0
2018-May-21 07:59N 37°57' E 023°33'0 0.0
2018-May-21 07:29N 37°57' E 023°33'0 0.1
2018-May-21 06:59N 37°57' E 023°33'0 0.1
2018-May-21 06:29N 37°57' E 023°33'0 0.0
2018-May-21 05:50N 37°57' E 023°33'0 0.0
2018-May-21 05:26N 37°57' E 023°33'0 0.0
2018-May-21 04:59N 37°57' E 023°33'0 0.0
2018-May-21 04:29N 37°57' E 023°33'0 0.0
2018-May-20 13:50N 37°57' E 023°33'0 0.0
2018-May-20 13:29N 37°57' E 023°33'0 0.0
2018-May-20 12:59N 37°57' E 023°33'0 0.0
2018-May-20 12:26N 37°57' E 023°33'0 0.0
2018-May-20 11:59N 37°57' E 023°33'0 0.0
2018-May-20 11:29N 37°57' E 023°33'0 0.0
2018-May-20 10:56N 37°57' E 023°33'0 0.0
2018-May-20 10:29N 37°57' E 023°33'0 0.0
2018-May-20 09:59N 37°57' E 023°33'0 0.0
2018-May-20 09:29N 37°57' E 023°33'0 0.0
2018-May-20 08:59N 37°57' E 023°33'0 0.0
2018-May-20 08:26N 37°57' E 023°33'0 0.0
2018-May-20 07:59N 37°57' E 023°33'0 0.0
2018-May-20 07:29N 37°57' E 023°33'0 0.0
2018-May-20 06:59N 37°57' E 023°33'0 0.0
2018-May-20 06:26N 37°57' E 023°33'0 0.0
2018-May-20 05:59N 37°57' E 023°33'0 0.0
2018-May-20 05:29N 37°57' E 023°33'0 0.0
2018-May-20 04:59N 37°57' E 023°33'0 0.0
2018-May-20 04:30N 37°57' E 023°33'0 0.0
2018-May-19 15:29N 37°57' E 023°33'0 0.0
2018-May-19 14:59N 37°57' E 023°33'0 0.0
2018-May-19 14:29N 37°57' E 023°33'0 0.0
2018-May-19 13:59N 37°57' E 023°33'0 0.0
2018-May-19 13:27N 37°57' E 023°33'0 0.0
2018-May-19 12:59N 37°57' E 023°33'0 0.0
2018-May-19 12:29N 37°57' E 023°33'0 0.0
2018-May-19 11:57N 37°57' E 023°33'0 0.0
2018-May-19 11:29N 37°57' E 023°33'0 0.0
2018-May-19 10:59N 37°57' E 023°33'0 0.0
2018-May-19 10:30N 37°57' E 023°33'0 0.0
2018-May-19 10:00N 37°57' E 023°33'0 0.0
2018-May-19 09:30N 37°57' E 023°33'0 0.0
2018-May-19 09:00N 37°57' E 023°33'0 0.0
2018-May-19 08:30N 37°57' E 023°33'0 0.0
2018-May-19 08:00N 37°57' E 023°33'0 0.0
2018-May-19 07:30N 37°57' E 023°33'0 0.0
2018-May-19 07:00N 37°57' E 023°33'0 0.0
2018-May-19 06:30N 37°57' E 023°33'0 0.0
2018-May-19 06:00N 37°57' E 023°33'0 0.0
2018-May-19 05:30N 37°57' E 023°33'0 0.0
2018-May-19 05:00N 37°57' E 023°33'0 0.0
2018-May-19 04:27N 37°57' E 023°33'0 0.0
2018-May-19 03:55N 37°57' E 023°33'0 0.0
2018-May-19 03:25N 37°57' E 023°33'0 0.0
2018-May-19 02:58N 37°57' E 023°33'0 0.0
2018-May-19 02:28N 37°57' E 023°33'0 0.0
2018-May-19 01:58N 37°57' E 023°33'0 0.0
2018-May-19 01:28N 37°57' E 023°33'0 0.0
2018-May-19 00:58N 37°57' E 023°33'0 0.0
2018-May-19 00:28N 37°57' E 023°33'0 0.0
2018-May-18 23:58N 37°57' E 023°33'0 0.0
2018-May-18 23:28N 37°57' E 023°33'0 0.0
2018-May-18 22:58N 37°57' E 023°33'0 0.0
2018-May-18 22:25N 37°57' E 023°33'0 0.0
2018-May-18 21:58N 37°57' E 023°33'0 0.0
2018-May-18 21:28N 37°57' E 023°33'0 0.0
2018-May-18 20:58N 37°57' E 023°33'0 0.0
2018-May-18 20:28N 37°57' E 023°33'0 0.0
2018-May-18 19:58N 37°57' E 023°33'0 0.0
2018-May-18 19:28N 37°57' E 023°33'0 0.0
2018-May-18 18:58N 37°57' E 023°33'0 0.0
2018-May-18 18:25N 37°57' E 023°33'0 0.0
2018-May-18 17:58N 37°57' E 023°33'0 0.0
2018-May-18 17:28N 37°57' E 023°33'0 0.0
2018-May-18 16:58N 37°57' E 023°33'0 0.0
2018-May-18 16:28N 37°57' E 023°33'0 0.0
2018-May-18 15:58N 37°57' E 023°33'0 0.0
2018-May-18 15:28N 37°57' E 023°33'0 0.0
2018-May-18 14:58N 37°57' E 023°33'0 0.0
2018-May-18 14:28N 37°57' E 023°33'0 0.0
2018-May-18 13:58N 37°57' E 023°33'0 0.0
2018-May-18 13:28N 37°57' E 023°33'0 0.0
2018-May-18 12:49N 37°57' E 023°33'0 0.0
2018-May-18 12:28N 37°57' E 023°33'0 0.0
2018-May-18 11:58N 37°57' E 023°33'0 0.0
2018-May-18 11:16N 37°57' E 023°33'0 0.0
2018-May-18 10:58N 37°57' E 023°33'0 0.0
2018-May-18 10:28N 37°57' E 023°33'0 0.0
2018-May-18 09:55N 37°57' E 023°33'0 0.0
2018-May-18 09:28N 37°57' E 023°33'0 0.0
2018-May-18 08:58N 37°57' E 023°33'0 0.0
2018-May-18 08:28N 37°57' E 023°33'0 0.0
2018-May-18 07:58N 37°57' E 023°33'0 0.0
2018-May-18 07:28N 37°57' E 023°33'0 0.0
2018-May-18 06:58N 37°57' E 023°33'0 0.0
2018-May-18 06:28N 37°57' E 023°33'0 0.0
2018-May-18 05:58N 37°57' E 023°33'0 0.0
2018-May-18 05:28N 37°57' E 023°33'0 0.0
2018-May-18 04:58N 37°57' E 023°33'0 0.0
2018-May-18 04:28N 37°57' E 023°33'0 0.0
2018-May-17 16:38N 37°57' E 023°33'0 0.0
2018-May-17 16:28N 37°57' E 023°33'0 0.0
2018-May-17 15:58N 37°57' E 023°33'0 0.0
2018-May-17 15:28N 37°57' E 023°33'0 0.0
2018-May-17 14:58N 37°57' E 023°33'0 0.0
2018-May-17 14:28N 37°57' E 023°33'0 0.0
2018-May-17 13:58N 37°57' E 023°33'0 0.0
2018-May-17 13:28N 37°57' E 023°33'0 0.0
2018-May-17 12:58N 37°57' E 023°33'0 0.0
2018-May-17 12:26N 37°57' E 023°33'0 0.0
2018-May-17 11:58N 37°57' E 023°33'0 0.0
2018-May-17 11:28N 37°57' E 023°33'0 0.0
2018-May-17 10:58N 37°57' E 023°33'0 0.0
2018-May-17 10:26N 37°57' E 023°33'0 0.0
2018-May-17 09:58N 37°57' E 023°33'0 0.0
2018-May-17 09:28N 37°57' E 023°33'0 0.0
2018-May-17 08:56N 37°57' E 023°33'0 0.0
2018-May-17 08:28N 37°57' E 023°33'0 0.0
2018-May-17 07:58N 37°57' E 023°33'0 0.0
2018-May-17 07:28N 37°57' E 023°33'0 0.0
2018-May-17 06:59N 37°57' E 023°33'0 0.0
2018-May-17 06:29N 37°57' E 023°33'0 0.0
2018-May-17 05:59N 37°57' E 023°33'0 0.0
2018-May-17 05:29N 37°57' E 023°33'0 0.0
2018-May-17 04:59N 37°57' E 023°33'0 0.0
2018-May-17 04:29N 37°57' E 023°33'0 0.0
2018-May-17 03:59N 37°57' E 023°33'0 0.0
2018-May-17 03:29N 37°57' E 023°33'0 0.0
2018-May-17 02:59N 37°57' E 023°33'0 0.0
2018-May-17 02:29N 37°57' E 023°33'0 0.0
2018-May-17 01:59N 37°57' E 023°33'0 0.0
2018-May-17 01:29N 37°57' E 023°33'0 0.0
2018-May-17 00:59N 37°57' E 023°33'0 0.0
2018-May-17 00:29N 37°57' E 023°33'0 0.0
2018-May-16 23:59N 37°57' E 023°33'0 0.0
2018-May-16 23:23N 37°57' E 023°33'0 0.0
2018-May-16 22:53N 37°57' E 023°33'0 0.0
2018-May-16 22:26N 37°57' E 023°33'0 0.0
2018-May-16 21:59N 37°57' E 023°33'0 0.0
2018-May-16 21:29N 37°57' E 023°33'0 0.0
2018-May-16 20:59N 37°57' E 023°33'0 0.0
2018-May-16 20:29N 37°57' E 023°33'0 0.0
2018-May-16 19:59N 37°57' E 023°33'0 0.0
2018-May-16 19:29N 37°57' E 023°33'0 0.0
2018-May-16 18:59N 37°57' E 023°33'0 0.0
2018-May-16 18:29N 37°57' E 023°33'0 0.0
2018-May-16 17:57N 37°57' E 023°33'0 0.0
2018-May-16 17:29N 37°57' E 023°33'0 0.0
2018-May-16 16:53N 37°57' E 023°33'0 0.0
2018-May-16 16:29N 37°57' E 023°33'0 0.0
2018-May-16 15:59N 37°57' E 023°33'0 0.0
2018-May-16 15:27N 37°57' E 023°33'0 0.0
2018-May-16 14:59N 37°57' E 023°33'0 0.0
2018-May-16 14:29N 37°57' E 023°33'0 0.0
2018-May-16 13:59N 37°57' E 023°33'0 0.0
2018-May-16 13:27N 37°57' E 023°33'0 0.0
2018-May-16 12:57N 37°57' E 023°33'0 0.0
2018-May-16 12:29N 37°57' E 023°33'0 0.0
2018-May-16 11:59N 37°57' E 023°33'0 0.0
2018-May-16 11:29N 37°57' E 023°33'0 0.0
2018-May-16 10:57N 37°57' E 023°33'0 0.0
2018-May-16 10:29N 37°57' E 023°33'0 0.0
2018-May-16 09:59N 37°57' E 023°33'0 0.0
2018-May-16 09:23N 37°57' E 023°33'0 0.0
2018-May-16 09:00N 37°57' E 023°33'0 0.0
2018-May-16 08:30N 37°57' E 023°33'0 0.0
2018-May-16 08:00N 37°57' E 023°33'0 0.0
2018-May-16 07:30N 37°57' E 023°33'0 0.0
2018-May-16 07:00N 37°57' E 023°33'0 0.0
2018-May-16 06:30N 37°57' E 023°33'0 0.0
2018-May-16 06:00N 37°57' E 023°33'0 0.0
2018-May-16 05:30N 37°57' E 023°33'0 0.0
2018-May-16 05:00N 37°57' E 023°33'0 0.0
2018-May-16 04:30N 37°57' E 023°33'0 0.0
2018-May-16 04:00N 37°57' E 023°33'0 0.0
2018-May-16 03:30N 37°57' E 023°33'0 0.0
2018-May-16 02:57N 37°57' E 023°33'0 0.0
2018-May-16 02:28N 37°57' E 023°33'0 0.0
2018-May-16 01:58N 37°57' E 023°33'0 0.0
2018-May-16 01:28N 37°57' E 023°33'0 0.0
2018-May-16 00:58N 37°57' E 023°33'0 0.0
2018-May-16 00:28N 37°57' E 023°33'0 0.0
2018-May-15 23:58N 37°57' E 023°33'0 0.0
2018-May-15 23:28N 37°57' E 023°33'0 0.0
2018-May-15 22:58N 37°57' E 023°33'0 0.0
2018-May-15 22:28N 37°57' E 023°33'0 0.0
2018-May-15 21:58N 37°57' E 023°33'0 0.0
2018-May-15 21:28N 37°57' E 023°33'0 0.0
2018-May-15 20:58N 37°57' E 023°33'0 0.0
2018-May-15 20:28N 37°57' E 023°33'0 0.0
2018-May-15 19:58N 37°57' E 023°33'0 0.0
2018-May-15 19:25N 37°57' E 023°33'0 0.0
2018-May-15 18:55N 37°57' E 023°33'0 0.0
2018-May-15 18:28N 37°57' E 023°33'0 0.0
2018-May-15 17:58N 37°57' E 023°33'0 0.0
2018-May-15 17:25N 37°57' E 023°33'0 0.0
2018-May-15 16:58N 37°57' E 023°33'0 0.0
2018-May-15 16:28N 37°57' E 023°33'0 0.0
2018-May-15 15:58N 37°57' E 023°33'0 0.0
2018-May-15 15:28N 37°57' E 023°33'0 0.0
2018-May-15 14:58N 37°57' E 023°33'0 0.0
2018-May-15 14:28N 37°57' E 023°33'0 0.0
2018-May-15 13:58N 37°57' E 023°33'0 0.0
2018-May-15 13:28N 37°57' E 023°33'0 0.0
2018-May-15 12:58N 37°57' E 023°33'0 0.0
2018-May-15 12:28N 37°57' E 023°33'0 0.0
2018-May-15 11:58N 37°57' E 023°33'0 0.0
2018-May-15 11:31N 37°57' E 023°33'0 0.0
2018-May-15 11:01N 37°57' E 023°33'0 0.0
2018-May-15 10:31N 37°57' E 023°33'0 0.0
2018-May-15 10:01N 37°57' E 023°33'  
Track history (hours):
 
Tides and Currents Weather Stations Pressure Air Temp Water Temp Dewpoint Dewpoint Depression Visibility Wind Speed Wind Dir Waves Ship Positions

Flying Cat 5

Last reported at 2018-May-24 09:01 UTC. Time now 2018-Jun-24 09:19 UTC.
Position N 37°42' E 023°41'.
Warning: this ship's position is 31 days out of date.

Length 40 m.

Type: Ship. MMSI: 237836900.

Date/timePositionNaut miles runAvg speedWind from/ knotsBaromVisibWave heightAir tempDewpointWater temp
2018-May-24 09:01N 37°42' E 023°41'1020.4
2018-May-24 08:31N 37°52' E 023°37'5 9.5
2018-May-24 08:00N 37°57' E 023°38'0 0.0
2018-May-24 07:30N 37°57' E 023°38'0 0.0
2018-May-24 07:00N 37°57' E 023°38'0 0.0
2018-May-24 06:30N 37°57' E 023°38'0 0.0
2018-May-24 06:00N 37°57' E 023°38'0 0.0
2018-May-24 05:30N 37°57' E 023°38'0 0.0
2018-May-24 05:00N 37°57' E 023°38'0 0.0
2018-May-24 04:27N 37°57' E 023°38'0 0.0
2018-May-23 18:52N 37°57' E 023°38'0 0.0
2018-May-23 18:30N 37°57' E 023°38'0 0.0
2018-May-23 18:00N 37°57' E 023°38'0 0.0
2018-May-23 17:30N 37°57' E 023°38'0 0.0
2018-May-23 17:00N 37°57' E 023°38'0 0.0
2018-May-23 16:30N 37°57' E 023°38'0 0.0
2018-May-23 16:00N 37°57' E 023°38'0 0.0
2018-May-23 15:30N 37°57' E 023°38'0 0.0
2018-May-23 15:00N 37°57' E 023°38'2 4.6
2018-May-23 14:30N 37°55' E 023°36'714.4
2018-May-23 14:00N 37°49' E 023°31'5 9.1
2018-May-23 13:30N 37°52' E 023°36'510.1
2018-May-23 13:00N 37°49' E 023°30'918.3
2018-May-23 12:30N 37°56' E 023°38'1 1.4
2018-May-23 12:00N 37°57' E 023°38'0 0.0
2018-May-23 11:30N 37°57' E 023°38'0 0.0
2018-May-23 11:00N 37°57' E 023°38'0 0.0
2018-May-23 10:30N 37°57' E 023°38'0 0.0
2018-May-23 09:57N 37°57' E 023°38'0 0.0
2018-May-23 09:30N 37°57' E 023°38'0 0.0
2018-May-23 09:00N 37°57' E 023°38'0 0.0
2018-May-23 08:30N 37°57' E 023°38'0 0.0
2018-May-23 08:00N 37°57' E 023°38'0 0.0
2018-May-23 07:30N 37°57' E 023°38'0 0.0
2018-May-23 06:49N 37°57' E 023°38'0 0.0
2018-May-23 06:22N 37°57' E 023°38'0 0.0
2018-May-23 05:55N 37°57' E 023°38'0 0.0
2018-May-23 05:27N 37°57' E 023°38'0 0.0
2018-May-23 04:58N 37°57' E 023°38'0 0.0
2018-May-23 04:30N 37°57' E 023°38'0 0.0
2018-May-22 21:28N 37°57' E 023°38'0 0.0
2018-May-22 20:58N 37°57' E 023°38'0 0.0
2018-May-22 20:27N 37°57' E 023°38'0 0.0
2018-May-22 19:59N 37°57' E 023°38'0 0.0
2018-May-22 19:29N 37°57' E 023°38'0 0.0
2018-May-22 18:57N 37°57' E 023°38'0 0.0
2018-May-22 18:30N 37°57' E 023°38'3 1.9
2018-May-22 17:10N 37°55' E 023°36'1 9.3
2018-May-22 17:00N 37°56' E 023°37'1 2.1
2018-May-22 16:27N 37°57' E 023°38'0 0.0
2018-May-22 16:00N 37°57' E 023°38'0 0.0
2018-May-22 15:30N 37°57' E 023°38'0 0.0
2018-May-22 15:00N 37°57' E 023°38'0 0.0
2018-May-22 14:30N 37°57' E 023°38'0 0.0
2018-May-22 14:00N 37°57' E 023°38'0 0.0
2018-May-22 13:30N 37°57' E 023°38'0 0.0
2018-May-22 13:00N 37°57' E 023°38'0 0.0
2018-May-22 12:30N 37°57' E 023°38'0 0.0
2018-May-22 12:00N 37°57' E 023°38'0 0.0
2018-May-22 11:30N 37°57' E 023°38'0 0.0
2018-May-22 10:54N 37°57' E 023°38'0 0.0
2018-May-22 10:30N 37°57' E 023°38'0 0.0
2018-May-22 10:00N 37°57' E 023°38'0 0.0
2018-May-22 09:30N 37°57' E 023°38'0 0.0
2018-May-22 09:00N 37°57' E 023°38'0 0.0
2018-May-22 08:30N 37°57' E 023°38'0 0.0
2018-May-22 08:00N 37°57' E 023°38'0 0.0
2018-May-22 07:30N 37°57' E 023°38'0 0.0
2018-May-22 07:00N 37°57' E 023°38'0 0.0
2018-May-22 06:27N 37°57' E 023°38'0 0.0
2018-May-22 06:00N 37°57' E 023°38'0 0.0
2018-May-22 05:30N 37°57' E 023°38'0 0.0
2018-May-22 05:00N 37°57' E 023°38'0 0.0
2018-May-21 19:30N 37°57' E 023°38'0 0.0
2018-May-21 18:57N 37°57' E 023°38'0 0.0
2018-May-21 18:28N 37°57' E 023°38'0 0.2
2018-May-21 18:00N 37°57' E 023°38'3 5.9
2018-May-21 17:30N 37°57' E 023°35'1 2.2
2018-May-21 16:58N 37°57' E 023°33'0 0.0
2018-May-21 13:59N 37°57' E 023°33'0 0.0
2018-May-21 13:29N 37°57' E 023°33'0 0.0
2018-May-21 12:59N 37°57' E 023°33'0 0.0
2018-May-21 12:29N 37°57' E 023°33'0 0.0
2018-May-21 11:59N 37°57' E 023°33'0 0.0
2018-May-21 11:23N 37°57' E 023°33'0 0.0
2018-May-21 10:59N 37°57' E 023°33'0 0.0
2018-May-21 10:29N 37°57' E 023°33'0 0.0
2018-May-21 09:59N 37°57' E 023°33'0 0.0
2018-May-21 09:26N 37°57' E 023°33'0 0.0
2018-May-21 08:56N 37°57' E 023°33'0 0.0
2018-May-21 08:29N 37°57' E 023°33'0 0.0
2018-May-21 07:59N 37°57' E 023°33'0 0.0
2018-May-21 07:29N 37°57' E 023°33'0 0.1
2018-May-21 06:59N 37°57' E 023°33'0 0.1
2018-May-21 06:29N 37°57' E 023°33'0 0.0
2018-May-21 05:50N 37°57' E 023°33'0 0.0
2018-May-21 05:26N 37°57' E 023°33'0 0.0
2018-May-21 04:59N 37°57' E 023°33'0 0.0
2018-May-21 04:29N 37°57' E 023°33'0 0.0
2018-May-20 13:50N 37°57' E 023°33'0 0.0
2018-May-20 13:29N 37°57' E 023°33'0 0.0
2018-May-20 12:59N 37°57' E 023°33'0 0.0
2018-May-20 12:26N 37°57' E 023°33'0 0.0
2018-May-20 11:59N 37°57' E 023°33'0 0.0
2018-May-20 11:29N 37°57' E 023°33'0 0.0
2018-May-20 10:56N 37°57' E 023°33'0 0.0
2018-May-20 10:29N 37°57' E 023°33'0 0.0
2018-May-20 09:59N 37°57' E 023°33'0 0.0
2018-May-20 09:29N 37°57' E 023°33'0 0.0
2018-May-20 08:59N 37°57' E 023°33'0 0.0
2018-May-20 08:26N 37°57' E 023°33'0 0.0
2018-May-20 07:59N 37°57' E 023°33'0 0.0
2018-May-20 07:29N 37°57' E 023°33'0 0.0
2018-May-20 06:59N 37°57' E 023°33'0 0.0
2018-May-20 06:26N 37°57' E 023°33'0 0.0
2018-May-20 05:59N 37°57' E 023°33'0 0.0
2018-May-20 05:29N 37°57' E 023°33'0 0.0
2018-May-20 04:59N 37°57' E 023°33'0 0.0
2018-May-20 04:30N 37°57' E 023°33'0 0.0
2018-May-19 15:29N 37°57' E 023°33'0 0.0
2018-May-19 14:59N 37°57' E 023°33'0 0.0
2018-May-19 14:29N 37°57' E 023°33'0 0.0
2018-May-19 13:59N 37°57' E 023°33'0 0.0
2018-May-19 13:27N 37°57' E 023°33'0 0.0
2018-May-19 12:59N 37°57' E 023°33'0 0.0
2018-May-19 12:29N 37°57' E 023°33'0 0.0
2018-May-19 11:57N 37°57' E 023°33'0 0.0
2018-May-19 11:29N 37°57' E 023°33'0 0.0
2018-May-19 10:59N 37°57' E 023°33'0 0.0
2018-May-19 10:30N 37°57' E 023°33'0 0.0
2018-May-19 10:00N 37°57' E 023°33'0 0.0
2018-May-19 09:30N 37°57' E 023°33'0 0.0
2018-May-19 09:00N 37°57' E 023°33'0 0.0
2018-May-19 08:30N 37°57' E 023°33'0 0.0
2018-May-19 08:00N 37°57' E 023°33'0 0.0
2018-May-19 07:30N 37°57' E 023°33'0 0.0
2018-May-19 07:00N 37°57' E 023°33'0 0.0
2018-May-19 06:30N 37°57' E 023°33'0 0.0
2018-May-19 06:00N 37°57' E 023°33'0 0.0
2018-May-19 05:30N 37°57' E 023°33'0 0.0
2018-May-19 05:00N 37°57' E 023°33'0 0.0
2018-May-19 04:27N 37°57' E 023°33'0 0.0
2018-May-19 03:55N 37°57' E 023°33'0 0.0
2018-May-19 03:25N 37°57' E 023°33'0 0.0
2018-May-19 02:58N 37°57' E 023°33'0 0.0
2018-May-19 02:28N 37°57' E 023°33'0 0.0
2018-May-19 01:58N 37°57' E 023°33'0 0.0
2018-May-19 01:28N 37°57' E 023°33'0 0.0
2018-May-19 00:58N 37°57' E 023°33'0 0.0
2018-May-19 00:28N 37°57' E 023°33'0 0.0
2018-May-18 23:58N 37°57' E 023°33'0 0.0
2018-May-18 23:28N 37°57' E 023°33'0 0.0
2018-May-18 22:58N 37°57' E 023°33'0 0.0
2018-May-18 22:25N 37°57' E 023°33'0 0.0
2018-May-18 21:58N 37°57' E 023°33'0 0.0
2018-May-18 21:28N 37°57' E 023°33'0 0.0
2018-May-18 20:58N 37°57' E 023°33'0 0.0
2018-May-18 20:28N 37°57' E 023°33'0 0.0
2018-May-18 19:58N 37°57' E 023°33'0 0.0
2018-May-18 19:28N 37°57' E 023°33'0 0.0
2018-May-18 18:58N 37°57' E 023°33'0 0.0
2018-May-18 18:25N 37°57' E 023°33'0 0.0
2018-May-18 17:58N 37°57' E 023°33'0 0.0
2018-May-18 17:28N 37°57' E 023°33'0 0.0
2018-May-18 16:58N 37°57' E 023°33'0 0.0
2018-May-18 16:28N 37°57' E 023°33'0 0.0
2018-May-18 15:58N 37°57' E 023°33'0 0.0
2018-May-18 15:28N 37°57' E 023°33'0 0.0
2018-May-18 14:58N 37°57' E 023°33'0 0.0
2018-May-18 14:28N 37°57' E 023°33'0 0.0
2018-May-18 13:58N 37°57' E 023°33'0 0.0
2018-May-18 13:28N 37°57' E 023°33'0 0.0
2018-May-18 12:49N 37°57' E 023°33'0 0.0
2018-May-18 12:28N 37°57' E 023°33'0 0.0
2018-May-18 11:58N 37°57' E 023°33'0 0.0
2018-May-18 11:16N 37°57' E 023°33'0 0.0
2018-May-18 10:58N 37°57' E 023°33'0 0.0
2018-May-18 10:28N 37°57' E 023°33'0 0.0
2018-May-18 09:55N 37°57' E 023°33'0 0.0
2018-May-18 09:28N 37°57' E 023°33'0 0.0
2018-May-18 08:58N 37°57' E 023°33'0 0.0
2018-May-18 08:28N 37°57' E 023°33'0 0.0
2018-May-18 07:58N 37°57' E 023°33'0 0.0
2018-May-18 07:28N 37°57' E 023°33'0 0.0
2018-May-18 06:58N 37°57' E 023°33'0 0.0
2018-May-18 06:28N 37°57' E 023°33'0 0.0
2018-May-18 05:58N 37°57' E 023°33'0 0.0
2018-May-18 05:28N 37°57' E 023°33'0 0.0
2018-May-18 04:58N 37°57' E 023°33'0 0.0
2018-May-18 04:28N 37°57' E 023°33'0 0.0
2018-May-17 16:38N 37°57' E 023°33'0 0.0
2018-May-17 16:28N 37°57' E 023°33'0 0.0
2018-May-17 15:58N 37°57' E 023°33'0 0.0
2018-May-17 15:28N 37°57' E 023°33'0 0.0
2018-May-17 14:58N 37°57' E 023°33'0 0.0
2018-May-17 14:28N 37°57' E 023°33'0 0.0
2018-May-17 13:58N 37°57' E 023°33'0 0.0
2018-May-17 13:28N 37°57' E 023°33'0 0.0
2018-May-17 12:58N 37°57' E 023°33'0 0.0
2018-May-17 12:26N 37°57' E 023°33'0 0.0
2018-May-17 11:58N 37°57' E 023°33'0 0.0
2018-May-17 11:28N 37°57' E 023°33'0 0.0
2018-May-17 10:58N 37°57' E 023°33'0 0.0
2018-May-17 10:26N 37°57' E 023°33'0 0.0
2018-May-17 09:58N 37°57' E 023°33'0 0.0
2018-May-17 09:28N 37°57' E 023°33'0 0.0
2018-May-17 08:56N 37°57' E 023°33'0 0.0
2018-May-17 08:28N 37°57' E 023°33'0 0.0
2018-May-17 07:58N 37°57' E 023°33'0 0.0
2018-May-17 07:28N 37°57' E 023°33'0 0.0
2018-May-17 06:59N 37°57' E 023°33'0 0.0
2018-May-17 06:29N 37°57' E 023°33'0 0.0
2018-May-17 05:59N 37°57' E 023°33'0 0.0
2018-May-17 05:29N 37°57' E 023°33'0 0.0
2018-May-17 04:59N 37°57' E 023°33'0 0.0
2018-May-17 04:29N 37°57' E 023°33'0 0.0
2018-May-17 03:59N 37°57' E 023°33'0 0.0
2018-May-17 03:29N 37°57' E 023°33'0 0.0
2018-May-17 02:59N 37°57' E 023°33'0 0.0
2018-May-17 02:29N 37°57' E 023°33'0 0.0
2018-May-17 01:59N 37°57' E 023°33'0 0.0
2018-May-17 01:29N 37°57' E 023°33'0 0.0
2018-May-17 00:59N 37°57' E 023°33'0 0.0
2018-May-17 00:29N 37°57' E 023°33'0 0.0
2018-May-16 23:59N 37°57' E 023°33'0 0.0
2018-May-16 23:23N 37°57' E 023°33'0 0.0
2018-May-16 22:53N 37°57' E 023°33'0 0.0
2018-May-16 22:26N 37°57' E 023°33'0 0.0
2018-May-16 21:59N 37°57' E 023°33'0 0.0
2018-May-16 21:29N 37°57' E 023°33'0 0.0
2018-May-16 20:59N 37°57' E 023°33'0 0.0
2018-May-16 20:29N 37°57' E 023°33'0 0.0
2018-May-16 19:59N 37°57' E 023°33'0 0.0
2018-May-16 19:29N 37°57' E 023°33'0 0.0
2018-May-16 18:59N 37°57' E 023°33'0 0.0
2018-May-16 18:29N 37°57' E 023°33'0 0.0
2018-May-16 17:57N 37°57' E 023°33'0 0.0
2018-May-16 17:29N 37°57' E 023°33'0 0.0
2018-May-16 16:53N 37°57' E 023°33'0 0.0
2018-May-16 16:29N 37°57' E 023°33'0 0.0
2018-May-16 15:59N 37°57' E 023°33'0 0.0
2018-May-16 15:27N 37°57' E 023°33'0 0.0
2018-May-16 14:59N 37°57' E 023°33'0 0.0
2018-May-16 14:29N 37°57' E 023°33'0 0.0
2018-May-16 13:59N 37°57' E 023°33'0 0.0
2018-May-16 13:27N 37°57' E 023°33'0 0.0
2018-May-16 12:57N 37°57' E 023°33'0 0.0
2018-May-16 12:29N 37°57' E 023°33'0 0.0
2018-May-16 11:59N 37°57' E 023°33'0 0.0
2018-May-16 11:29N 37°57' E 023°33'0 0.0
2018-May-16 10:57N 37°57' E 023°33'0 0.0
2018-May-16 10:29N 37°57' E 023°33'0 0.0
2018-May-16 09:59N 37°57' E 023°33'0 0.0
2018-May-16 09:23N 37°57' E 023°33'0 0.0
2018-May-16 09:00N 37°57' E 023°33'0 0.0
2018-May-16 08:30N 37°57' E 023°33'0 0.0
2018-May-16 08:00N 37°57' E 023°33'0 0.0
2018-May-16 07:30N 37°57' E 023°33'0 0.0
2018-May-16 07:00N 37°57' E 023°33'0 0.0
2018-May-16 06:30N 37°57' E 023°33'0 0.0
2018-May-16 06:00N 37°57' E 023°33'0 0.0
2018-May-16 05:30N 37°57' E 023°33'0 0.0
2018-May-16 05:00N 37°57' E 023°33'0 0.0
2018-May-16 04:30N 37°57' E 023°33'0 0.0
2018-May-16 04:00N 37°57' E 023°33'0 0.0
2018-May-16 03:30N 37°57' E 023°33'0 0.0
2018-May-16 02:57N 37°57' E 023°33'0 0.0
2018-May-16 02:28N 37°57' E 023°33'0 0.0
2018-May-16 01:58N 37°57' E 023°33'0 0.0
2018-May-16 01:28N 37°57' E 023°33'0 0.0
2018-May-16 00:58N 37°57' E 023°33'0 0.0
2018-May-16 00:28N 37°57' E 023°33'0 0.0
2018-May-15 23:58N 37°57' E 023°33'0 0.0
2018-May-15 23:28N 37°57' E 023°33'0 0.0
2018-May-15 22:58N 37°57' E 023°33'0 0.0
2018-May-15 22:28N 37°57' E 023°33'0 0.0
2018-May-15 21:58N 37°57' E 023°33'0 0.0
2018-May-15 21:28N 37°57' E 023°33'0 0.0
2018-May-15 20:58N 37°57' E 023°33'0 0.0
2018-May-15 20:28N 37°57' E 023°33'0 0.0
2018-May-15 19:58N 37°57' E 023°33'0 0.0
2018-May-15 19:25N 37°57' E 023°33'0 0.0
2018-May-15 18:55N 37°57' E 023°33'0 0.0
2018-May-15 18:28N 37°57' E 023°33'0 0.0
2018-May-15 17:58N 37°57' E 023°33'0 0.0
2018-May-15 17:25N 37°57' E 023°33'0 0.0
2018-May-15 16:58N 37°57' E 023°33'0 0.0
2018-May-15 16:28N 37°57' E 023°33'0 0.0
2018-May-15 15:58N 37°57' E 023°33'0 0.0
2018-May-15 15:28N 37°57' E 023°33'0 0.0
2018-May-15 14:58N 37°57' E 023°33'0 0.0
2018-May-15 14:28N 37°57' E 023°33'0 0.0
2018-May-15 13:58N 37°57' E 023°33'0 0.0
2018-May-15 13:28N 37°57' E 023°33'0 0.0
2018-May-15 12:58N 37°57' E 023°33'0 0.0
2018-May-15 12:28N 37°57' E 023°33'0 0.0
2018-May-15 11:58N 37°57' E 023°33'0 0.0
2018-May-15 11:31N 37°57' E 023°33'0 0.0
2018-May-15 11:01N 37°57' E 023°33'0 0.0
2018-May-15 10:31N 37°57' E 023°33'0 0.0
2018-May-15 10:01N 37°57' E 023°33'  

Dump ship's entire track history